sensor_id;sensor_type;location;lat;lon;timestamp;pressure;altitude;pressure_sealevel;temperature;humidity
38630;BME280;24384;51.988;4.644;2022-12-10T00:01:08;100973.13;;;-1.04;86.87
38630;BME280;24384;51.988;4.644;2022-12-10T00:03:34;100969.63;;;-1.08;87.03
38630;BME280;24384;51.988;4.644;2022-12-10T00:06:03;100984.22;;;-1.13;86.73
38630;BME280;24384;51.988;4.644;2022-12-10T00:08:29;100974.78;;;-1.11;86.94
38630;BME280;24384;51.988;4.644;2022-12-10T00:10:54;100977.41;;;-1.08;86.95
38630;BME280;24384;51.988;4.644;2022-12-10T00:13:20;100976.47;;;-1.13;87.05
38630;BME280;24384;51.988;4.644;2022-12-10T00:15:45;100978.13;;;-1.15;87.28
38630;BME280;24384;51.988;4.644;2022-12-10T00:18:10;100983.34;;;-1.13;87.17
38630;BME280;24384;51.988;4.644;2022-12-10T00:20:37;100979.16;;;-1.06;86.67
38630;BME280;24384;51.988;4.644;2022-12-10T00:23:02;100973.94;;;-1.10;86.64
38630;BME280;24384;51.988;4.644;2022-12-10T00:25:27;100980.03;;;-1.06;86.21
38630;BME280;24384;51.988;4.644;2022-12-10T00:27:52;100981.56;;;-1.17;86.40
38630;BME280;24384;51.988;4.644;2022-12-10T00:30:18;100983.47;;;-1.05;86.04
38630;BME280;24384;51.988;4.644;2022-12-10T00:32:43;100976.41;;;-1.16;86.41
38630;BME280;24384;51.988;4.644;2022-12-10T00:35:08;100983.97;;;-1.28;86.81
38630;BME280;24384;51.988;4.644;2022-12-10T00:37:35;100984.91;;;-1.23;86.77
38630;BME280;24384;51.988;4.644;2022-12-10T00:40:00;100984.22;;;-1.13;86.02
38630;BME280;24384;51.988;4.644;2022-12-10T00:42:27;100993.03;;;-1.03;85.35
38630;BME280;24384;51.988;4.644;2022-12-10T00:44:52;100986.97;;;-1.03;86.03
38630;BME280;24384;51.988;4.644;2022-12-10T00:47:19;100982.75;;;-0.97;85.87
38630;BME280;24384;51.988;4.644;2022-12-10T00:49:44;100983.63;;;-0.96;85.20
38630;BME280;24384;51.988;4.644;2022-12-10T00:52:09;100985.44;;;-0.91;85.07
38630;BME280;24384;51.988;4.644;2022-12-10T00:54:34;100995.56;;;-1.04;84.99
38630;BME280;24384;51.988;4.644;2022-12-10T00:57:00;100996.25;;;-1.15;85.65
38630;BME280;24384;51.988;4.644;2022-12-10T00:59:26;100989.47;;;-1.10;85.78
38630;BME280;24384;51.988;4.644;2022-12-10T01:01:51;100983.56;;;-0.99;85.22
38630;BME280;24384;51.988;4.644;2022-12-10T01:04:18;100998.00;;;-1.14;85.68
38630;BME280;24384;51.988;4.644;2022-12-10T01:06:51;100997.28;;;-1.06;85.04
38630;BME280;24384;51.988;4.644;2022-12-10T01:09:22;101000.72;;;-1.06;84.81
38630;BME280;24384;51.988;4.644;2022-12-10T01:11:49;101008.19;;;-1.23;85.11
38630;BME280;24384;51.988;4.644;2022-12-10T01:14:24;101008.19;;;-1.23;85.22
38630;BME280;24384;51.988;4.644;2022-12-10T01:16:51;101012.47;;;-1.27;85.62
38630;BME280;24384;51.988;4.644;2022-12-10T01:19:18;101011.47;;;-1.32;85.81
38630;BME280;24384;51.988;4.644;2022-12-10T01:21:43;101008.00;;;-1.34;86.11
38630;BME280;24384;51.988;4.644;2022-12-10T01:24:08;101009.72;;;-1.36;86.35
38630;BME280;24384;51.988;4.644;2022-12-10T01:26:34;101023.50;;;-1.35;86.84
38630;BME280;24384;51.988;4.644;2022-12-10T01:29:01;101032.13;;;-1.35;87.07
38630;BME280;24384;51.988;4.644;2022-12-10T01:31:31;101023.50;;;-1.35;87.28
38630;BME280;24384;51.988;4.644;2022-12-10T01:33:57;101021.94;;;-1.26;87.10
38630;BME280;24384;51.988;4.644;2022-12-10T01:36:36;101017.66;;;-1.25;87.62
38630;BME280;24384;51.988;4.644;2022-12-10T01:39:04;101024.59;;;-1.22;86.89
38630;BME280;24384;51.988;4.644;2022-12-10T01:41:35;101026.28;;;-1.24;87.81
38630;BME280;24384;51.988;4.644;2022-12-10T01:44:04;101029.78;;;-1.21;87.51
38630;BME280;24384;51.988;4.644;2022-12-10T01:46:39;101023.00;;;-1.16;87.30
38630;BME280;24384;51.988;4.644;2022-12-10T01:49:07;101034.38;;;-1.06;87.34
38630;BME280;24384;51.988;4.644;2022-12-10T01:51:37;101033.69;;;-0.97;87.27
38630;BME280;24384;51.988;4.644;2022-12-10T01:54:05;101029.97;;;-1.12;87.12
38630;BME280;24384;51.988;4.644;2022-12-10T01:56:36;101036.97;;;-1.06;87.25
38630;BME280;24384;51.988;4.644;2022-12-10T01:59:02;101035.13;;;-1.13;87.27
38630;BME280;24384;51.988;4.644;2022-12-10T02:01:32;101034.34;;;-1.09;87.60
38630;BME280;24384;51.988;4.644;2022-12-10T02:06:59;101041.91;;;-1.20;88.10
38630;BME280;24384;51.988;4.644;2022-12-10T02:12:37;101029.72;;;-1.26;88.03
38630;BME280;24384;51.988;4.644;2022-12-10T02:15:29;101037.38;;;-1.32;88.95
38630;BME280;24384;51.988;4.644;2022-12-10T02:18:01;101031.41;;;-1.28;88.88
38630;BME280;24384;51.988;4.644;2022-12-10T02:20:43;101036.63;;;-1.26;88.79
38630;BME280;24384;51.988;4.644;2022-12-10T02:23:16;101039.13;;;-1.31;88.49
38630;BME280;24384;51.988;4.644;2022-12-10T02:25:50;101036.63;;;-1.26;89.20
38630;BME280;24384;51.988;4.644;2022-12-10T02:30:54;101038.38;;;-1.25;88.58
38630;BME280;24384;51.988;4.644;2022-12-10T02:33:22;101036.59;;;-1.28;88.70
38630;BME280;24384;51.988;4.644;2022-12-10T02:35:50;101035.75;;;-1.27;88.77
38630;BME280;24384;51.988;4.644;2022-12-10T02:38:29;101039.97;;;-1.30;89.22
38630;BME280;24384;51.988;4.644;2022-12-10T02:41:01;101038.31;;;-1.28;89.27
38630;BME280;24384;51.988;4.644;2022-12-10T02:43:29;101038.31;;;-1.28;88.98
38630;BME280;24384;51.988;4.644;2022-12-10T02:45:56;101036.44;;;-1.35;89.14
38630;BME280;24384;51.988;4.644;2022-12-10T02:48:23;101041.53;;;-1.40;89.59
38630;BME280;24384;51.988;4.644;2022-12-10T02:50:49;101043.97;;;-1.48;89.50
38630;BME280;24384;51.988;4.644;2022-12-10T02:53:15;101031.84;;;-1.50;89.51
38630;BME280;24384;51.988;4.644;2022-12-10T03:01:06;101035.34;;;-1.48;89.91
38630;BME280;24384;51.988;4.644;2022-12-10T03:03:46;101028.34;;;-1.52;90.22
38630;BME280;24384;51.988;4.644;2022-12-10T03:06:36;101036.84;;;-1.58;90.47
38630;BME280;24384;51.988;4.644;2022-12-10T03:09:17;101037.75;;;-1.57;90.72
38630;BME280;24384;51.988;4.644;2022-12-10T03:11:46;101023.97;;;-1.55;90.40
38630;BME280;24384;51.988;4.644;2022-12-10T03:14:24;101032.56;;;-1.59;90.63
38630;BME280;24384;51.988;4.644;2022-12-10T03:16:56;101024.97;;;-1.50;90.29
38630;BME280;24384;51.988;4.644;2022-12-10T03:19:26;101029.19;;;-1.53;90.46
38630;BME280;24384;51.988;4.644;2022-12-10T03:21:53;101021.41;;;-1.55;90.17
38630;BME280;24384;51.988;4.644;2022-12-10T03:24:22;101027.56;;;-1.50;90.48
38630;BME280;24384;51.988;4.644;2022-12-10T03:26:48;101023.31;;;-1.46;90.10
38630;BME280;24384;51.988;4.644;2022-12-10T03:29:17;101019.97;;;-1.40;90.73
38630;BME280;24384;51.988;4.644;2022-12-10T03:31:46;101018.19;;;-1.43;90.01
38630;BME280;24384;51.988;4.644;2022-12-10T03:34:13;101016.34;;;-1.49;90.09
38630;BME280;24384;51.988;4.644;2022-12-10T03:36:38;101016.34;;;-1.49;89.96
38630;BME280;24384;51.988;4.644;2022-12-10T03:39:04;101024.97;;;-1.50;89.97
38630;BME280;24384;51.988;4.644;2022-12-10T03:41:30;101022.41;;;-1.48;89.97
38630;BME280;24384;51.988;4.644;2022-12-10T03:43:58;101024.13;;;-1.47;90.07
38630;BME280;24384;51.988;4.644;2022-12-10T03:46:25;101018.97;;;-1.47;89.73
38630;BME280;24384;51.988;4.644;2022-12-10T03:48:52;101025.06;;;-1.45;90.08
38630;BME280;24384;51.988;4.644;2022-12-10T03:51:18;101033.69;;;-1.45;90.58
38630;BME280;24384;51.988;4.644;2022-12-10T03:53:44;101035.47;;;-1.42;89.75
38630;BME280;24384;51.988;4.644;2022-12-10T03:56:09;101034.63;;;-1.39;90.45
38630;BME280;24384;51.988;4.644;2022-12-10T03:58:35;101036.22;;;-1.48;90.19
38630;BME280;24384;51.988;4.644;2022-12-10T04:01:02;101036.31;;;-1.41;90.14
38630;BME280;24384;51.988;4.644;2022-12-10T04:03:27;101033.66;;;-1.46;90.72
38630;BME280;24384;51.988;4.644;2022-12-10T04:05:52;101037.97;;;-1.47;90.33
38630;BME280;24384;51.988;4.644;2022-12-10T04:08:18;101035.44;;;-1.43;90.35
38630;BME280;24384;51.988;4.644;2022-12-10T04:10:43;101042.25;;;-1.47;90.53
38630;BME280;24384;51.988;4.644;2022-12-10T04:13:08;101043.28;;;-1.39;90.67
38630;BME280;24384;51.988;4.644;2022-12-10T04:15:52;101043.19;;;-1.43;90.50
38630;BME280;24384;51.988;4.644;2022-12-10T04:18:36;101037.94;;;-1.48;90.55
38630;BME280;24384;51.988;4.644;2022-12-10T04:21:01;101043.13;;;-1.47;91.06
38630;BME280;24384;51.988;4.644;2022-12-10T04:23:45;101033.47;;;-1.55;91.16
38630;BME280;24384;51.988;4.644;2022-12-10T04:26:30;101037.81;;;-1.54;91.28
38630;BME280;24384;51.988;4.644;2022-12-10T04:29:14;101038.09;;;-1.40;91.04
38630;BME280;24384;51.988;4.644;2022-12-10T04:31:39;101042.31;;;-1.44;90.84
38630;BME280;24384;51.988;4.644;2022-12-10T04:34:05;101043.09;;;-1.48;90.71
38630;BME280;24384;51.988;4.644;2022-12-10T04:36:30;101043.97;;;-1.48;91.23
38630;BME280;24384;51.988;4.644;2022-12-10T04:38:55;101050.94;;;-1.45;91.18
38630;BME280;24384;51.988;4.644;2022-12-10T04:41:22;101040.50;;;-1.50;91.02
38630;BME280;24384;51.988;4.644;2022-12-10T04:43:47;101037.16;;;-1.42;90.67
38630;BME280;24384;51.988;4.644;2022-12-10T04:46:13;101044.13;;;-1.40;91.18
38630;BME280;24384;51.988;4.644;2022-12-10T04:48:39;101038.97;;;-1.38;90.63
38630;BME280;24384;51.988;4.644;2022-12-10T04:51:04;101031.22;;;-1.38;90.50
38630;BME280;24384;51.988;4.644;2022-12-10T04:53:29;101043.38;;;-1.34;90.95
38630;BME280;24384;51.988;4.644;2022-12-10T04:55:55;101038.28;;;-1.30;90.72
38630;BME280;24384;51.988;4.644;2022-12-10T04:58:20;101044.31;;;-1.29;90.80
38630;BME280;24384;51.988;4.644;2022-12-10T05:00:45;101047.59;;;-1.38;90.89
38630;BME280;24384;51.988;4.644;2022-12-10T05:03:10;101039.75;;;-1.42;91.03
38630;BME280;24384;51.988;4.644;2022-12-10T05:05:36;101044.81;;;-1.49;90.97
38630;BME280;24384;51.988;4.644;2022-12-10T05:08:01;101040.47;;;-1.51;90.41
38630;BME280;24384;51.988;4.644;2022-12-10T05:10:28;101039.56;;;-1.52;90.58
38630;BME280;24384;51.988;4.644;2022-12-10T05:12:53;101040.19;;;-1.65;91.03
38630;BME280;24384;51.988;4.644;2022-12-10T05:15:19;101043.72;;;-1.60;91.03
38630;BME280;24384;51.988;4.644;2022-12-10T05:17:44;101042.88;;;-1.60;91.27
38630;BME280;24384;51.988;4.644;2022-12-10T05:20:10;101046.47;;;-1.52;91.38
38630;BME280;24384;51.988;4.644;2022-12-10T05:22:35;101050.84;;;-1.50;91.00
38630;BME280;24384;51.988;4.644;2022-12-10T05:25:19;101040.53;;;-1.48;90.92
38630;BME280;24384;51.988;4.644;2022-12-10T05:27:44;101040.63;;;-1.42;90.76
38630;BME280;24384;51.988;4.644;2022-12-10T05:30:10;101044.09;;;-1.41;90.73
38630;BME280;24384;51.988;4.644;2022-12-10T05:32:35;101043.13;;;-1.47;90.85
38630;BME280;24384;51.988;4.644;2022-12-10T05:35:01;101032.00;;;-1.41;90.98
38630;BME280;24384;51.988;4.644;2022-12-10T05:37:27;101035.59;;;-1.36;90.46
38630;BME280;24384;51.988;4.644;2022-12-10T05:39:54;101039.03;;;-1.35;90.31
38630;BME280;24384;51.988;4.644;2022-12-10T05:42:20;101040.75;;;-1.36;90.39
38630;BME280;24384;51.988;4.644;2022-12-10T05:44:45;101043.19;;;-1.43;90.98
38630;BME280;24384;51.988;4.644;2022-12-10T05:47:10;101049.19;;;-1.46;90.64
38630;BME280;24384;51.988;4.644;2022-12-10T05:49:36;101040.66;;;-1.40;91.10
38630;BME280;24384;51.988;4.644;2022-12-10T05:52:04;101046.72;;;-1.40;90.54
38630;BME280;24384;51.988;4.644;2022-12-10T05:54:29;101044.25;;;-1.32;90.36
38630;BME280;24384;51.988;4.644;2022-12-10T05:56:55;101043.31;;;-1.37;90.55
38630;BME280;24384;51.988;4.644;2022-12-10T05:59:20;101048.50;;;-1.37;90.62
38630;BME280;24384;51.988;4.644;2022-12-10T06:01:45;101048.47;;;-1.39;90.38
38630;BME280;24384;51.988;4.644;2022-12-10T06:04:11;101046.66;;;-1.43;91.39
38630;BME280;24384;51.988;4.644;2022-12-10T06:06:38;101050.84;;;-1.50;91.44
38630;BME280;24384;51.988;4.644;2022-12-10T06:09:05;101050.84;;;-1.50;90.77
38630;BME280;24384;51.988;4.644;2022-12-10T06:11:31;101053.50;;;-1.47;91.07
38630;BME280;24384;51.988;4.644;2022-12-10T06:13:57;101048.38;;;-1.43;90.86
38630;BME280;24384;51.988;4.644;2022-12-10T06:16:25;101052.78;;;-1.38;90.61
38630;BME280;24384;51.988;4.644;2022-12-10T06:18:50;101051.81;;;-1.43;90.80
38630;BME280;24384;51.988;4.644;2022-12-10T06:21:17;101062.13;;;-1.46;91.19
38630;BME280;24384;51.988;4.644;2022-12-10T06:23:43;101060.53;;;-1.38;90.95
38630;BME280;24384;51.988;4.644;2022-12-10T06:26:14;101058.78;;;-1.40;91.17
38630;BME280;24384;51.988;4.644;2022-12-10T06:28:40;101065.03;;;-1.29;90.94
38630;BME280;24384;51.988;4.644;2022-12-10T06:31:06;101064.25;;;-1.25;91.02
38630;BME280;24384;51.988;4.644;2022-12-10T06:33:32;101071.16;;;-1.24;91.17
38630;BME280;24384;51.988;4.644;2022-12-10T06:35:57;101075.47;;;-1.24;91.24
38630;BME280;24384;51.988;4.644;2022-12-10T06:38:22;101071.03;;;-1.30;90.99
38630;BME280;24384;51.988;4.644;2022-12-10T06:40:49;101067.53;;;-1.34;91.17
38630;BME280;24384;51.988;4.644;2022-12-10T06:43:14;101077.91;;;-1.32;91.17
38630;BME280;24384;51.988;4.644;2022-12-10T06:45:41;101071.88;;;-1.33;91.51
38630;BME280;24384;51.988;4.644;2022-12-10T06:48:07;101077.94;;;-1.31;91.15
38630;BME280;24384;51.988;4.644;2022-12-10T06:50:32;101074.38;;;-1.37;91.04
38630;BME280;24384;51.988;4.644;2022-12-10T06:52:58;101076.09;;;-1.36;90.58
38630;BME280;24384;51.988;4.644;2022-12-10T06:55:23;101074.25;;;-1.43;91.29
38630;BME280;24384;51.988;4.644;2022-12-10T06:57:53;101083.72;;;-1.42;91.66
38630;BME280;24384;51.988;4.644;2022-12-10T07:00:19;101088.09;;;-1.40;91.38
38630;BME280;24384;51.988;4.644;2022-12-10T07:02:44;101091.56;;;-1.39;91.75
38630;BME280;24384;51.988;4.644;2022-12-10T07:05:10;101090.81;;;-1.34;91.65
38630;BME280;24384;51.988;4.644;2022-12-10T07:07:35;101096.97;;;-1.27;91.45
38630;BME280;24384;51.988;4.644;2022-12-10T07:10:01;101091.78;;;-1.27;91.35
38630;BME280;24384;51.988;4.644;2022-12-10T07:12:27;101100.41;;;-1.30;91.58
38630;BME280;24384;51.988;4.644;2022-12-10T07:14:52;101104.06;;;-1.18;91.35
38630;BME280;24384;51.988;4.644;2022-12-10T07:17:18;101102.28;;;-1.19;91.05
38630;BME280;24384;51.988;4.644;2022-12-10T07:19:43;101100.66;;;-1.16;91.13
38630;BME280;24384;51.988;4.644;2022-12-10T07:22:09;101097.09;;;-1.21;90.60
38630;BME280;24384;51.988;4.644;2022-12-10T07:24:34;101108.22;;;-1.27;91.11
38630;BME280;24384;51.988;4.644;2022-12-10T07:27:00;101099.56;;;-1.27;90.75
38630;BME280;24384;51.988;4.644;2022-12-10T07:29:25;101098.66;;;-1.29;90.85
38630;BME280;24384;51.988;4.644;2022-12-10T07:31:51;101105.75;;;-1.20;91.25
38630;BME280;24384;51.988;4.644;2022-12-10T07:34:17;101106.56;;;-1.23;91.18
38630;BME280;24384;51.988;4.644;2022-12-10T07:36:43;101104.91;;;-1.18;90.78
38630;BME280;24384;51.988;4.644;2022-12-10T07:39:09;101113.53;;;-1.19;90.98
38630;BME280;24384;51.988;4.644;2022-12-10T07:41:35;101109.13;;;-1.23;90.66
38630;BME280;24384;51.988;4.644;2022-12-10T07:44:02;101104.75;;;-1.26;90.68
38630;BME280;24384;51.988;4.644;2022-12-10T07:46:30;101105.66;;;-1.25;91.09
38630;BME280;24384;51.988;4.644;2022-12-10T07:48:56;101104.72;;;-1.27;90.89
38630;BME280;24384;51.988;4.644;2022-12-10T07:51:24;101102.25;;;-1.21;91.12
38630;BME280;24384;51.988;4.644;2022-12-10T07:53:53;101105.47;;;-1.34;90.89
38630;BME280;24384;51.988;4.644;2022-12-10T07:56:18;101099.25;;;-1.42;91.41
38630;BME280;24384;51.988;4.644;2022-12-10T07:58:45;101114.94;;;-1.35;91.74
38630;BME280;24384;51.988;4.644;2022-12-10T08:01:14;101109.63;;;-1.41;91.88
38630;BME280;24384;51.988;4.644;2022-12-10T08:03:40;101116.44;;;-1.46;91.94
38630;BME280;24384;51.988;4.644;2022-12-10T08:06:07;101120.63;;;-1.53;91.92
38630;BME280;24384;51.988;4.644;2022-12-10T08:08:34;101120.66;;;-1.51;91.79
38630;BME280;24384;51.988;4.644;2022-12-10T08:11:00;101131.09;;;-1.47;92.39
38630;BME280;24384;51.988;4.644;2022-12-10T08:13:26;101131.78;;;-1.55;91.65
38630;BME280;24384;51.988;4.644;2022-12-10T08:15:52;101130.88;;;-1.57;92.04
38630;BME280;24384;51.988;4.644;2022-12-10T08:18:17;101141.28;;;-1.54;91.98
38630;BME280;24384;51.988;4.644;2022-12-10T08:20:43;101135.91;;;-1.64;92.14
38630;BME280;24384;51.988;4.644;2022-12-10T08:23:08;101150.59;;;-1.61;91.81
38630;BME280;24384;51.988;4.644;2022-12-10T08:25:35;101153.22;;;-1.59;91.59
38630;BME280;24384;51.988;4.644;2022-12-10T08:28:01;101150.69;;;-1.58;91.73
38630;BME280;24384;51.988;4.644;2022-12-10T08:30:28;101155.94;;;-1.53;91.69
38630;BME280;24384;51.988;4.644;2022-12-10T08:32:53;101157.47;;;-1.63;91.63
38630;BME280;24384;51.988;4.644;2022-12-10T08:35:18;101157.63;;;-1.55;92.14
38630;BME280;24384;51.988;4.644;2022-12-10T08:37:43;101160.31;;;-1.51;91.57
38630;BME280;24384;51.988;4.644;2022-12-10T08:40:09;101159.38;;;-1.56;92.07
38630;BME280;24384;51.988;4.644;2022-12-10T08:42:34;101163.84;;;-1.47;91.31
38630;BME280;24384;51.988;4.644;2022-12-10T08:45:00;101167.25;;;-1.50;92.02
38630;BME280;24384;51.988;4.644;2022-12-10T08:47:26;101161.19;;;-1.50;91.84
38630;BME280;24384;51.988;4.644;2022-12-10T08:49:52;101170.47;;;-1.60;91.81
38630;BME280;24384;51.988;4.644;2022-12-10T08:52:17;101167.06;;;-1.59;91.59
38630;BME280;24384;51.988;4.644;2022-12-10T08:54:42;101172.19;;;-1.60;91.53
38630;BME280;24384;51.988;4.644;2022-12-10T08:57:07;101172.81;;;-1.71;92.05
38630;BME280;24384;51.988;4.644;2022-12-10T08:59:33;101170.31;;;-1.68;91.47
38630;BME280;24384;51.988;4.644;2022-12-10T09:01:58;101177.28;;;-1.65;91.40
38630;BME280;24384;51.988;4.644;2022-12-10T09:04:23;101177.13;;;-1.71;91.77
38630;BME280;24384;51.988;4.644;2022-12-10T09:06:48;101180.63;;;-1.69;91.86
38630;BME280;24384;51.988;4.644;2022-12-10T09:09:14;101176.38;;;-1.66;91.55
38630;BME280;24384;51.988;4.644;2022-12-10T09:11:39;101176.06;;;-1.80;91.23
38630;BME280;24384;51.988;4.644;2022-12-10T09:14:04;101177.81;;;-1.78;91.66
38630;BME280;24384;51.988;4.644;2022-12-10T09:16:35;101174.41;;;-1.77;90.85
38630;BME280;24384;51.988;4.644;2022-12-10T09:19:01;101166.72;;;-1.74;91.08
38630;BME280;24384;51.988;4.644;2022-12-10T09:21:27;101184.72;;;-1.79;91.46
38630;BME280;24384;51.988;4.644;2022-12-10T09:23:53;101177.81;;;-1.78;91.08
38630;BME280;24384;51.988;4.644;2022-12-10T09:26:19;101184.78;;;-1.76;90.91
38630;BME280;24384;51.988;4.644;2022-12-10T09:28:46;101180.69;;;-1.66;91.12
38630;BME280;24384;51.988;4.644;2022-12-10T09:31:12;101189.53;;;-1.55;91.03
38630;BME280;24384;51.988;4.644;2022-12-10T09:33:38;101189.53;;;-1.55;90.61
38630;BME280;24384;51.988;4.644;2022-12-10T09:36:05;101192.22;;;-1.50;90.66
38630;BME280;24384;51.988;4.644;2022-12-10T09:38:36;101194.84;;;-1.49;90.66
38630;BME280;24384;51.988;4.644;2022-12-10T09:48:49;101203.81;;;-1.72;91.02
38630;BME280;24384;51.988;4.644;2022-12-10T09:51:23;101208.09;;;-1.74;91.41
38630;BME280;24384;51.988;4.644;2022-12-10T09:53:52;101214.03;;;-1.78;90.99
38630;BME280;24384;51.988;4.644;2022-12-10T09:56:43;101221.75;;;-1.80;91.16
38630;BME280;24384;51.988;4.644;2022-12-10T09:59:31;101215.75;;;-1.79;91.09
38630;BME280;24384;51.988;4.644;2022-12-10T10:02:26;101223.44;;;-1.82;91.55
38630;BME280;24384;51.988;4.644;2022-12-10T10:05:10;101213.34;;;-1.71;91.23
38630;BME280;24384;51.988;4.644;2022-12-10T10:07:42;101222.81;;;-1.70;90.92
38630;BME280;24384;51.988;4.644;2022-12-10T10:10:35;101204.78;;;-1.67;91.29
38630;BME280;24384;51.988;4.644;2022-12-10T10:13:18;101207.31;;;-1.70;90.99
38630;BME280;24384;51.988;4.644;2022-12-10T10:15:49;101207.66;;;-1.55;90.89
38630;BME280;24384;51.988;4.644;2022-12-10T10:18:17;101219.81;;;-1.51;90.66
38630;BME280;24384;51.988;4.644;2022-12-10T10:20:46;101229.00;;;-1.65;90.54
38630;BME280;24384;51.988;4.644;2022-12-10T10:23:14;101221.19;;;-1.67;90.98
38630;BME280;24384;51.988;4.644;2022-12-10T10:25:40;101228.97;;;-1.67;90.74
38630;BME280;24384;51.988;4.644;2022-12-10T10:28:05;101221.16;;;-1.68;90.97
38630;BME280;24384;51.988;4.644;2022-12-10T10:30:31;101216.03;;;-1.67;90.83
38630;BME280;24384;51.988;4.644;2022-12-10T10:32:57;101218.78;;;-1.59;91.08
38630;BME280;24384;51.988;4.644;2022-12-10T10:35:33;101219.50;;;-1.65;91.14
38630;BME280;24384;51.988;4.644;2022-12-10T10:38:13;101209.88;;;-1.70;91.47
38630;BME280;24384;51.988;4.644;2022-12-10T10:40:42;101222.03;;;-1.68;91.32
38630;BME280;24384;51.988;4.644;2022-12-10T10:43:15;101222.13;;;-1.63;91.48
38630;BME280;24384;51.988;4.644;2022-12-10T10:45:43;101215.34;;;-1.58;91.53
38630;BME280;24384;51.988;4.644;2022-12-10T10:48:21;101210.38;;;-1.49;90.93
38630;BME280;24384;51.988;4.644;2022-12-10T10:50:53;101209.41;;;-1.54;90.54
38630;BME280;24384;51.988;4.644;2022-12-10T10:53:28;101217.00;;;-1.62;90.70
38630;BME280;24384;51.988;4.644;2022-12-10T10:55:56;101201.44;;;-1.63;91.03
38630;BME280;24384;51.988;4.644;2022-12-10T10:58:24;101210.06;;;-1.63;91.13
38630;BME280;24384;51.988;4.644;2022-12-10T11:00:57;101203.88;;;-1.69;91.41
38630;BME280;24384;51.988;4.644;2022-12-10T11:03:25;101206.50;;;-1.68;91.62
38630;BME280;24384;51.988;4.644;2022-12-10T11:05:50;101211.66;;;-1.69;92.38
38630;BME280;24384;51.988;4.644;2022-12-10T11:08:18;101219.63;;;-1.60;91.36
38630;BME280;24384;51.988;4.644;2022-12-10T11:10:57;101214.47;;;-1.58;91.36
38630;BME280;24384;51.988;4.644;2022-12-10T11:13:29;101223.50;;;-1.39;91.46
38630;BME280;24384;51.988;4.644;2022-12-10T11:18:40;101218.41;;;-1.36;90.82
38630;BME280;24384;51.988;4.644;2022-12-10T11:21:16;101211.16;;;-1.53;91.49
38630;BME280;24384;51.988;4.644;2022-12-10T11:23:46;101210.78;;;-1.30;91.09
38630;BME280;24384;51.988;4.644;2022-12-10T11:29:43;101211.00;;;-1.19;90.38
38630;BME280;24384;51.988;4.644;2022-12-10T11:32:29;101203.34;;;-1.15;91.21
38630;BME280;24384;51.988;4.644;2022-12-10T11:35:14;101206.69;;;-1.20;90.92
38630;BME280;24384;51.988;4.644;2022-12-10T11:46:27;101202.69;;;-1.04;89.77
38630;BME280;24384;51.988;4.644;2022-12-10T11:49:16;101202.50;;;-1.14;90.26
38630;BME280;24384;51.988;4.644;2022-12-10T11:51:59;101199.94;;;-1.12;90.06
38630;BME280;24384;51.988;4.644;2022-12-10T12:00:11;101197.44;;;-1.08;90.46
38630;BME280;24384;51.988;4.644;2022-12-10T12:05:52;101202.53;;;-1.12;90.44
38630;BME280;24384;51.988;4.644;2022-12-10T12:14:10;101214.22;;;-0.88;90.41
38630;BME280;24384;51.988;4.644;2022-12-10T12:17:00;101204.50;;;-1.00;90.04
38630;BME280;24384;51.988;4.644;2022-12-10T12:19:33;101195.75;;;-1.05;90.38
38630;BME280;24384;51.988;4.644;2022-12-10T12:22:14;101207.13;;;-0.99;90.14
38630;BME280;24384;51.988;4.644;2022-12-10T12:24:41;101195.81;;;-1.02;89.94
38630;BME280;24384;51.988;4.644;2022-12-10T12:27:28;101187.91;;;-1.10;90.42
38630;BME280;24384;51.988;4.644;2022-12-10T12:30:12;101187.34;;;-0.95;90.48
38630;BME280;24384;51.988;4.644;2022-12-10T12:32:56;101192.69;;;-0.86;90.17
38630;BME280;24384;51.988;4.644;2022-12-10T12:35:42;101205.75;;;-0.81;90.51
38630;BME280;24384;51.988;4.644;2022-12-10T12:41:01;101181.34;;;-0.94;90.15
38630;BME280;24384;51.988;4.644;2022-12-10T12:46:02;101178.59;;;-1.02;90.61
38630;BME280;24384;51.988;4.644;2022-12-10T12:48:44;101180.63;;;-0.85;90.46
38630;BME280;24384;51.988;4.644;2022-12-10T12:51:34;101197.84;;;-0.87;90.46
38630;BME280;24384;51.988;4.644;2022-12-10T12:54:02;101201.97;;;-0.99;90.54
38630;BME280;24384;51.988;4.644;2022-12-10T13:00:03;101202.00;;;-0.96;91.26
38630;BME280;24384;51.988;4.644;2022-12-10T13:02:53;101201.22;;;-0.92;91.00
38630;BME280;24384;51.988;4.644;2022-12-10T13:05:32;101208.06;;;-0.95;90.32
38630;BME280;24384;51.988;4.644;2022-12-10T13:13:41;101207.13;;;-0.99;91.06
38630;BME280;24384;51.988;4.644;2022-12-10T13:17:00;101215.69;;;-1.01;91.17
38630;BME280;24384;51.988;4.644;2022-12-10T13:19:28;101214.97;;;-0.96;90.46
38630;BME280;24384;51.988;4.644;2022-12-10T13:27:16;101234.66;;;-1.02;91.39
38630;BME280;24384;51.988;4.644;2022-12-10T13:32:20;101226.25;;;-0.92;90.71
38630;BME280;24384;51.988;4.644;2022-12-10T13:37:34;101231.53;;;-0.86;90.79
38630;BME280;24384;51.988;4.644;2022-12-10T13:42:43;101229.91;;;-0.81;90.12
38630;BME280;24384;51.988;4.644;2022-12-10T13:45:31;101234.19;;;-0.83;90.88
38630;BME280;24384;51.988;4.644;2022-12-10T13:48:28;101228.28;;;-0.77;90.99
38630;BME280;24384;51.988;4.644;2022-12-10T13:51:11;101236.06;;;-0.76;90.18
38630;BME280;24384;51.988;4.644;2022-12-10T13:53:52;101229.25;;;-0.70;90.36
38630;BME280;24384;51.988;4.644;2022-12-10T13:56:28;101234.34;;;-0.75;90.49
38630;BME280;24384;51.988;4.644;2022-12-10T13:59:19;101236.22;;;-0.68;90.56
38630;BME280;24384;51.988;4.644;2022-12-10T14:01:53;101228.31;;;-0.76;90.87
38630;BME280;24384;51.988;4.644;2022-12-10T14:07:13;101226.47;;;-0.81;90.38
38630;BME280;24384;51.988;4.644;2022-12-10T14:09:54;101229.03;;;-0.83;91.48
38630;BME280;24384;51.988;4.644;2022-12-10T14:12:25;101229.72;;;-0.90;91.19
38630;BME280;24384;51.988;4.644;2022-12-10T14:14:55;101221.25;;;-0.83;91.40
38630;BME280;24384;51.988;4.644;2022-12-10T14:17:33;101219.41;;;-0.88;91.25
38630;BME280;24384;51.988;4.644;2022-12-10T14:20:00;101216.03;;;-0.84;91.51
38630;BME280;24384;51.988;4.644;2022-12-10T14:24:59;101224.66;;;-0.84;91.49
38630;BME280;24384;51.988;4.644;2022-12-10T14:27:27;101226.38;;;-0.86;91.31